sensor_id;sensor_type;location;lat;lon;timestamp;P1;durP1;ratioP1;P2;durP2;ratioP2
57899;SDS011;60605;53.716;19.940;2024-02-23T00:18:26;24.50;;;14.20;;
57899;SDS011;60605;53.716;19.940;2024-02-23T00:23:29;28.00;;;15.60;;
57899;SDS011;60605;53.716;19.940;2024-02-23T00:28:31;24.80;;;14.50;;
57899;SDS011;60605;53.716;19.940;2024-02-23T00:33:37;23.50;;;14.00;;
57899;SDS011;60605;53.716;19.940;2024-02-23T00:38:39;30.50;;;15.00;;
57899;SDS011;60605;53.716;19.940;2024-02-23T00:43:42;41.60;;;16.70;;
57899;SDS011;60605;53.716;19.940;2024-02-23T00:48:44;26.00;;;14.20;;
57899;SDS011;60605;53.716;19.940;2024-02-23T00:53:46;29.00;;;16.00;;
57899;SDS011;60605;53.716;19.940;2024-02-23T00:58:49;23.30;;;13.20;;
57899;SDS011;60605;53.716;19.940;2024-02-23T01:03:52;41.10;;;17.30;;
57899;SDS011;60605;53.716;19.940;2024-02-23T01:08:54;23.00;;;14.10;;
57899;SDS011;60605;53.716;19.940;2024-02-23T01:13:56;28.00;;;14.70;;
57899;SDS011;60605;53.716;19.940;2024-02-23T01:18:58;21.50;;;12.80;;
57899;SDS011;60605;53.716;19.940;2024-02-23T01:24:00;17.20;;;11.30;;
57899;SDS011;60605;53.716;19.940;2024-02-23T01:34:06;17.00;;;12.20;;
57899;SDS011;60605;53.716;19.940;2024-02-23T01:39:08;30.60;;;16.00;;
57899;SDS011;60605;53.716;19.940;2024-02-23T01:44:11;20.60;;;13.30;;
57899;SDS011;60605;53.716;19.940;2024-02-23T01:49:13;21.30;;;13.00;;
57899;SDS011;60605;53.716;19.940;2024-02-23T01:54:16;23.30;;;12.90;;
57899;SDS011;60605;53.716;19.940;2024-02-23T01:59:18;15.70;;;11.50;;
57899;SDS011;60605;53.716;19.940;2024-02-23T02:04:22;19.10;;;12.20;;
57899;SDS011;60605;53.716;19.940;2024-02-23T02:09:25;17.50;;;11.60;;
57899;SDS011;60605;53.716;19.940;2024-02-23T02:14:29;16.30;;;11.30;;
57899;SDS011;60605;53.716;19.940;2024-02-23T02:19:33;15.90;;;11.30;;
57899;SDS011;60605;53.716;19.940;2024-02-23T02:24:35;16.70;;;10.90;;
57899;SDS011;60605;53.716;19.940;2024-02-23T02:29:38;12.90;;;9.50;;
57899;SDS011;60605;53.716;19.940;2024-02-23T02:34:40;15.10;;;10.70;;
57899;SDS011;60605;53.716;19.940;2024-02-23T02:39:42;15.00;;;10.20;;
57899;SDS011;60605;53.716;19.940;2024-02-23T02:44:44;16.20;;;11.40;;
57899;SDS011;60605;53.716;19.940;2024-02-23T02:49:46;16.50;;;11.60;;
57899;SDS011;60605;53.716;19.940;2024-02-23T02:54:48;15.00;;;10.60;;
57899;SDS011;60605;53.716;19.940;2024-02-23T02:59:52;17.80;;;11.90;;
57899;SDS011;60605;53.716;19.940;2024-02-23T03:04:54;18.00;;;10.80;;
57899;SDS011;60605;53.716;19.940;2024-02-23T03:09:57;14.90;;;10.10;;
57899;SDS011;60605;53.716;19.940;2024-02-23T03:15:00;14.50;;;10.50;;
57899;SDS011;60605;53.716;19.940;2024-02-23T03:20:03;15.40;;;10.40;;
57899;SDS011;60605;53.716;19.940;2024-02-23T03:25:08;13.80;;;9.80;;
57899;SDS011;60605;53.716;19.940;2024-02-23T03:30:11;10.80;;;7.90;;
57899;SDS011;60605;53.716;19.940;2024-02-23T03:35:13;11.70;;;9.90;;
57899;SDS011;60605;53.716;19.940;2024-02-23T03:40:15;14.30;;;10.50;;
57899;SDS011;60605;53.716;19.940;2024-02-23T03:45:19;12.50;;;8.80;;
57899;SDS011;60605;53.716;19.940;2024-02-23T03:50:21;13.20;;;9.20;;
57899;SDS011;60605;53.716;19.940;2024-02-23T03:55:23;14.80;;;10.70;;
57899;SDS011;60605;53.716;19.940;2024-02-23T04:00:25;14.50;;;10.20;;
57899;SDS011;60605;53.716;19.940;2024-02-23T04:05:28;16.30;;;10.90;;
57899;SDS011;60605;53.716;19.940;2024-02-23T04:10:30;16.40;;;11.60;;
57899;SDS011;60605;53.716;19.940;2024-02-23T04:15:32;18.10;;;11.20;;
57899;SDS011;60605;53.716;19.940;2024-02-23T04:20:34;14.90;;;10.90;;
57899;SDS011;60605;53.716;19.940;2024-02-23T04:25:36;16.80;;;11.00;;
57899;SDS011;60605;53.716;19.940;2024-02-23T04:30:39;18.00;;;11.40;;
57899;SDS011;60605;53.716;19.940;2024-02-23T04:35:41;14.60;;;10.70;;
57899;SDS011;60605;53.716;19.940;2024-02-23T04:40:43;19.10;;;12.20;;
57899;SDS011;60605;53.716;19.940;2024-02-23T04:45:45;17.50;;;11.00;;
57899;SDS011;60605;53.716;19.940;2024-02-23T04:50:47;16.00;;;10.60;;
57899;SDS011;60605;53.716;19.940;2024-02-23T04:55:49;13.50;;;10.40;;
57899;SDS011;60605;53.716;19.940;2024-02-23T05:00:51;15.00;;;10.50;;
57899;SDS011;60605;53.716;19.940;2024-02-23T05:05:53;12.30;;;10.90;;
57899;SDS011;60605;53.716;19.940;2024-02-23T05:10:56;12.20;;;10.20;;
57899;SDS011;60605;53.716;19.940;2024-02-23T05:15:59;12.30;;;9.40;;
57899;SDS011;60605;53.716;19.940;2024-02-23T05:21:01;11.80;;;8.80;;
57899;SDS011;60605;53.716;19.940;2024-02-23T05:26:03;11.30;;;9.40;;
57899;SDS011;60605;53.716;19.940;2024-02-23T05:31:11;10.40;;;8.80;;
57899;SDS011;60605;53.716;19.940;2024-02-23T05:36:13;10.70;;;9.10;;
57899;SDS011;60605;53.716;19.940;2024-02-23T05:41:17;10.60;;;8.80;;
57899;SDS011;60605;53.716;19.940;2024-02-23T05:46:19;10.90;;;9.10;;
57899;SDS011;60605;53.716;19.940;2024-02-23T05:51:22;11.60;;;8.90;;
57899;SDS011;60605;53.716;19.940;2024-02-23T05:56:25;10.70;;;9.30;;
57899;SDS011;60605;53.716;19.940;2024-02-23T06:01:27;11.50;;;8.80;;
57899;SDS011;60605;53.716;19.940;2024-02-23T06:06:29;10.20;;;9.10;;
57899;SDS011;60605;53.716;19.940;2024-02-23T06:11:33;10.00;;;8.90;;
57899;SDS011;60605;53.716;19.940;2024-02-23T06:16:35;17.90;;;16.00;;
57899;SDS011;60605;53.716;19.940;2024-02-23T06:21:37;23.80;;;21.30;;
57899;SDS011;60605;53.716;19.940;2024-02-23T06:26:39;18.70;;;12.10;;
57899;SDS011;60605;53.716;19.940;2024-02-23T06:31:41;14.70;;;10.40;;
57899;SDS011;60605;53.716;19.940;2024-02-23T06:36:43;24.50;;;10.90;;
57899;SDS011;60605;53.716;19.940;2024-02-23T06:41:45;13.50;;;12.10;;
57899;SDS011;60605;53.716;19.940;2024-02-23T06:46:47;16.90;;;10.20;;
57899;SDS011;60605;53.716;19.940;2024-02-23T06:51:49;14.50;;;9.20;;
57899;SDS011;60605;53.716;19.940;2024-02-23T06:56:51;20.20;;;10.40;;
57899;SDS011;60605;53.716;19.940;2024-02-23T07:01:53;16.40;;;9.40;;
57899;SDS011;60605;53.716;19.940;2024-02-23T07:06:57;16.90;;;10.30;;
57899;SDS011;60605;53.716;19.940;2024-02-23T07:11:59;18.50;;;10.20;;
57899;SDS011;60605;53.716;19.940;2024-02-23T07:17:01;18.90;;;10.30;;
57899;SDS011;60605;53.716;19.940;2024-02-23T07:22:03;63.60;;;22.50;;
57899;SDS011;60605;53.716;19.940;2024-02-23T07:27:05;13.50;;;8.40;;
57899;SDS011;60605;53.716;19.940;2024-02-23T07:32:07;9.20;;;7.30;;
57899;SDS011;60605;53.716;19.940;2024-02-23T07:37:10;13.90;;;7.70;;
57899;SDS011;60605;53.716;19.940;2024-02-23T07:42:12;8.00;;;6.70;;
57899;SDS011;60605;53.716;19.940;2024-02-23T07:47:16;7.70;;;6.50;;
57899;SDS011;60605;53.716;19.940;2024-02-23T07:57:21;7.80;;;6.70;;
57899;SDS011;60605;53.716;19.940;2024-02-23T08:02:25;8.00;;;6.60;;
57899;SDS011;60605;53.716;19.940;2024-02-23T08:07:27;9.90;;;6.60;;
57899;SDS011;60605;53.716;19.940;2024-02-23T08:12:32;9.20;;;6.40;;
57899;SDS011;60605;53.716;19.940;2024-02-23T08:17:35;8.00;;;6.40;;
57899;SDS011;60605;53.716;19.940;2024-02-23T08:22:37;7.50;;;6.00;;
57899;SDS011;60605;53.716;19.940;2024-02-23T08:27:40;9.00;;;6.20;;
57899;SDS011;60605;53.716;19.940;2024-02-23T08:32:42;15.20;;;8.30;;
57899;SDS011;60605;53.716;19.940;2024-02-23T08:37:45;20.40;;;8.60;;
57899;SDS011;60605;53.716;19.940;2024-02-23T08:42:47;14.20;;;8.60;;
57899;SDS011;60605;53.716;19.940;2024-02-23T08:47:49;10.20;;;6.00;;
57899;SDS011;60605;53.716;19.940;2024-02-23T08:52:51;8.30;;;6.00;;
57899;SDS011;60605;53.716;19.940;2024-02-23T08:57:53;7.40;;;5.70;;
57899;SDS011;60605;53.716;19.940;2024-02-23T09:02:55;75.20;;;18.80;;
57899;SDS011;60605;53.716;19.940;2024-02-23T09:07:57;16.30;;;8.10;;
57899;SDS011;60605;53.716;19.940;2024-02-23T09:12:59;8.60;;;6.10;;
57899;SDS011;60605;53.716;19.940;2024-02-23T09:18:01;6.70;;;4.70;;
57899;SDS011;60605;53.716;19.940;2024-02-23T09:23:03;6.00;;;5.00;;
57899;SDS011;60605;53.716;19.940;2024-02-23T09:28:06;6.60;;;4.40;;
57899;SDS011;60605;53.716;19.940;2024-02-23T09:33:08;6.10;;;3.90;;
57899;SDS011;60605;53.716;19.940;2024-02-23T09:38:10;11.70;;;5.10;;
57899;SDS011;60605;53.716;19.940;2024-02-23T09:43:12;6.80;;;4.20;;
57899;SDS011;60605;53.716;19.940;2024-02-23T09:48:16;4.60;;;3.00;;
57899;SDS011;60605;53.716;19.940;2024-02-23T09:53:21;4.10;;;3.70;;
57899;SDS011;60605;53.716;19.940;2024-02-23T09:58:24;7.80;;;3.90;;
57899;SDS011;60605;53.716;19.940;2024-02-23T10:03:28;4.90;;;3.00;;
57899;SDS011;60605;53.716;19.940;2024-02-23T10:08:34;5.60;;;3.00;;
57899;SDS011;60605;53.716;19.940;2024-02-23T10:13:36;5.70;;;3.40;;
57899;SDS011;60605;53.716;19.940;2024-02-23T10:18:38;4.10;;;3.00;;
57899;SDS011;60605;53.716;19.940;2024-02-23T10:23:41;3.00;;;2.50;;
57899;SDS011;60605;53.716;19.940;2024-02-23T10:28:44;4.90;;;3.10;;
57899;SDS011;60605;53.716;19.940;2024-02-23T10:33:48;5.60;;;3.10;;
57899;SDS011;60605;53.716;19.940;2024-02-23T10:38:54;4.60;;;2.60;;
57899;SDS011;60605;53.716;19.940;2024-02-23T10:44:01;6.10;;;3.30;;
57899;SDS011;60605;53.716;19.940;2024-02-23T10:49:06;4.10;;;2.70;;
57899;SDS011;60605;53.716;19.940;2024-02-23T10:54:09;8.20;;;4.00;;
57899;SDS011;60605;53.716;19.940;2024-02-23T10:59:14;7.90;;;3.30;;
57899;SDS011;60605;53.716;19.940;2024-02-23T11:04:20;5.00;;;2.50;;
57899;SDS011;60605;53.716;19.940;2024-02-23T11:09:24;5.00;;;3.40;;
57899;SDS011;60605;53.716;19.940;2024-02-23T11:19:38;5.60;;;2.60;;
57899;SDS011;60605;53.716;19.940;2024-02-23T11:24:44;3.50;;;2.20;;
57899;SDS011;60605;53.716;19.940;2024-02-23T11:29:47;2.80;;;2.00;;
57899;SDS011;60605;53.716;19.940;2024-02-23T11:34:55;2.70;;;1.80;;
57899;SDS011;60605;53.716;19.940;2024-02-23T11:39:59;1.60;;;1.50;;
57899;SDS011;60605;53.716;19.940;2024-02-23T11:45:03;3.80;;;1.90;;
57899;SDS011;60605;53.716;19.940;2024-02-23T11:50:07;2.70;;;1.50;;
57899;SDS011;60605;53.716;19.940;2024-02-23T11:55:12;1.70;;;1.60;;
57899;SDS011;60605;53.716;19.940;2024-02-23T12:00:23;2.00;;;1.40;;
57899;SDS011;60605;53.716;19.940;2024-02-23T12:05:26;2.20;;;1.60;;
57899;SDS011;60605;53.716;19.940;2024-02-23T12:10:29;1.60;;;1.50;;
57899;SDS011;60605;53.716;19.940;2024-02-23T12:15:31;9.20;;;1.30;;
57899;SDS011;60605;53.716;19.940;2024-02-23T12:20:33;1.40;;;1.30;;
57899;SDS011;60605;53.716;19.940;2024-02-23T12:25:36;1.60;;;1.40;;
57899;SDS011;60605;53.716;19.940;2024-02-23T12:30:41;1.10;;;1.10;;
57899;SDS011;60605;53.716;19.940;2024-02-23T12:35:43;2.30;;;1.40;;
57899;SDS011;60605;53.716;19.940;2024-02-23T12:40:46;2.70;;;1.30;;
57899;SDS011;60605;53.716;19.940;2024-02-23T12:45:48;1.50;;;1.40;;
57899;SDS011;60605;53.716;19.940;2024-02-23T12:55:53;1.20;;;1.20;;
57899;SDS011;60605;53.716;19.940;2024-02-23T13:00:55;1.50;;;1.40;;
57899;SDS011;60605;53.716;19.940;2024-02-23T13:05:58;1.20;;;1.20;;
57899;SDS011;60605;53.716;19.940;2024-02-23T13:11:01;1.40;;;1.30;;
57899;SDS011;60605;53.716;19.940;2024-02-23T13:16:03;2.80;;;1.20;;
57899;SDS011;60605;53.716;19.940;2024-02-23T13:21:06;4.70;;;2.30;;
57899;SDS011;60605;53.716;19.940;2024-02-23T13:26:08;3.10;;;2.00;;
57899;SDS011;60605;53.716;19.940;2024-02-23T13:31:14;2.10;;;1.90;;
57899;SDS011;60605;53.716;19.940;2024-02-23T13:36:18;5.10;;;3.00;;
57899;SDS011;60605;53.716;19.940;2024-02-23T13:41:22;10.80;;;6.00;;
57899;SDS011;60605;53.716;19.940;2024-02-23T13:46:24;7.50;;;4.30;;
57899;SDS011;60605;53.716;19.940;2024-02-23T13:51:26;42.00;;;23.20;;
57899;SDS011;60605;53.716;19.940;2024-02-23T13:56:28;27.00;;;16.10;;
57899;SDS011;60605;53.716;19.940;2024-02-23T14:01:31;19.80;;;13.30;;
57899;SDS011;60605;53.716;19.940;2024-02-23T14:06:33;13.40;;;5.90;;
57899;SDS011;60605;53.716;19.940;2024-02-23T14:11:35;17.60;;;7.70;;
57899;SDS011;60605;53.716;19.940;2024-02-23T14:16:37;14.50;;;6.20;;
57899;SDS011;60605;53.716;19.940;2024-02-23T14:21:39;17.00;;;7.40;;
57899;SDS011;60605;53.716;19.940;2024-02-23T14:26:42;14.10;;;10.10;;
57899;SDS011;60605;53.716;19.940;2024-02-23T14:31:44;7.20;;;3.30;;
57899;SDS011;60605;53.716;19.940;2024-02-23T14:36:46;13.60;;;5.60;;
57899;SDS011;60605;53.716;19.940;2024-02-23T14:41:48;22.00;;;9.50;;
57899;SDS011;60605;53.716;19.940;2024-02-23T14:46:52;13.10;;;5.50;;
57899;SDS011;60605;53.716;19.940;2024-02-23T14:51:54;15.10;;;6.70;;
57899;SDS011;60605;53.716;19.940;2024-02-23T14:56:56;69.70;;;19.60;;
57899;SDS011;60605;53.716;19.940;2024-02-23T15:01:58;81.30;;;29.40;;
57899;SDS011;60605;53.716;19.940;2024-02-23T15:07:00;35.80;;;13.60;;
57899;SDS011;60605;53.716;19.940;2024-02-23T15:12:03;19.90;;;7.80;;
57899;SDS011;60605;53.716;19.940;2024-02-23T15:17:06;23.30;;;11.10;;
57899;SDS011;60605;53.716;19.940;2024-02-23T15:22:08;98.90;;;32.70;;
57899;SDS011;60605;53.716;19.940;2024-02-23T15:27:15;113.50;;;36.10;;
57899;SDS011;60605;53.716;19.940;2024-02-23T15:32:18;146.70;;;50.60;;
57899;SDS011;60605;53.716;19.940;2024-02-23T15:37:20;90.00;;;31.40;;
57899;SDS011;60605;53.716;19.940;2024-02-23T15:42:22;60.40;;;23.30;;
57899;SDS011;60605;53.716;19.940;2024-02-23T15:47:24;92.10;;;33.40;;
57899;SDS011;60605;53.716;19.940;2024-02-23T15:52:27;74.50;;;33.30;;
57899;SDS011;60605;53.716;19.940;2024-02-23T15:57:29;104.80;;;51.00;;
57899;SDS011;60605;53.716;19.940;2024-02-23T16:02:32;171.10;;;67.60;;
57899;SDS011;60605;53.716;19.940;2024-02-23T16:07:34;102.70;;;43.50;;
57899;SDS011;60605;53.716;19.940;2024-02-23T16:12:36;168.20;;;54.40;;
57899;SDS011;60605;53.716;19.940;2024-02-23T16:17:39;154.10;;;63.80;;
57899;SDS011;60605;53.716;19.940;2024-02-23T16:22:42;178.90;;;70.90;;
57899;SDS011;60605;53.716;19.940;2024-02-23T16:27:45;161.80;;;79.80;;
57899;SDS011;60605;53.716;19.940;2024-02-23T16:32:48;120.30;;;49.90;;
57899;SDS011;60605;53.716;19.940;2024-02-23T16:37:51;103.70;;;49.20;;
57899;SDS011;60605;53.716;19.940;2024-02-23T16:42:57;206.00;;;71.70;;
57899;SDS011;60605;53.716;19.940;2024-02-23T16:47:59;137.50;;;46.90;;
57899;SDS011;60605;53.716;19.940;2024-02-23T16:53:03;92.10;;;35.20;;
57899;SDS011;60605;53.716;19.940;2024-02-23T16:58:05;47.00;;;21.00;;
57899;SDS011;60605;53.716;19.940;2024-02-23T17:03:07;51.50;;;24.30;;
57899;SDS011;60605;53.716;19.940;2024-02-23T17:08:10;48.30;;;22.00;;
57899;SDS011;60605;53.716;19.940;2024-02-23T17:13:15;42.40;;;20.60;;
57899;SDS011;60605;53.716;19.940;2024-02-23T17:18:17;50.70;;;22.20;;
57899;SDS011;60605;53.716;19.940;2024-02-23T17:28:22;54.90;;;23.40;;
57899;SDS011;60605;53.716;19.940;2024-02-23T17:33:24;66.30;;;26.10;;
57899;SDS011;60605;53.716;19.940;2024-02-23T17:38:27;52.80;;;22.20;;
57899;SDS011;60605;53.716;19.940;2024-02-23T17:43:29;43.50;;;20.00;;
57899;SDS011;60605;53.716;19.940;2024-02-23T17:48:32;36.60;;;16.70;;
57899;SDS011;60605;53.716;19.940;2024-02-23T17:53:36;15.40;;;7.30;;
57899;SDS011;60605;53.716;19.940;2024-02-23T17:58:38;31.30;;;13.60;;
57899;SDS011;60605;53.716;19.940;2024-02-23T18:03:41;106.50;;;42.20;;
57899;SDS011;60605;53.716;19.940;2024-02-23T18:08:43;303.00;;;107.50;;
57899;SDS011;60605;53.716;19.940;2024-02-23T18:13:46;508.70;;;192.30;;
57899;SDS011;60605;53.716;19.940;2024-02-23T18:18:49;625.70;;;229.80;;
57899;SDS011;60605;53.716;19.940;2024-02-23T18:23:52;1980.00;;;629.90;;
57899;SDS011;60605;53.716;19.940;2024-02-23T18:28:54;626.30;;;257.20;;
57899;SDS011;60605;53.716;19.940;2024-02-23T18:33:57;302.50;;;133.50;;
57899;SDS011;60605;53.716;19.940;2024-02-23T18:39:00;300.40;;;134.20;;
57899;SDS011;60605;53.716;19.940;2024-02-23T18:44:03;415.10;;;184.30;;
57899;SDS011;60605;53.716;19.940;2024-02-23T18:49:06;392.00;;;150.80;;
57899;SDS011;60605;53.716;19.940;2024-02-23T18:54:09;341.70;;;127.60;;
57899;SDS011;60605;53.716;19.940;2024-02-23T18:59:11;403.00;;;142.50;;
57899;SDS011;60605;53.716;19.940;2024-02-23T19:04:14;378.70;;;144.90;;
57899;SDS011;60605;53.716;19.940;2024-02-23T19:09:17;339.20;;;128.00;;
57899;SDS011;60605;53.716;19.940;2024-02-23T19:14:19;261.80;;;103.60;;
57899;SDS011;60605;53.716;19.940;2024-02-23T19:19:21;134.40;;;58.40;;
57899;SDS011;60605;53.716;19.940;2024-02-23T19:24:24;134.70;;;59.30;;
57899;SDS011;60605;53.716;19.940;2024-02-23T19:29:31;136.30;;;59.00;;
57899;SDS011;60605;53.716;19.940;2024-02-23T19:34:33;462.90;;;185.90;;
57899;SDS011;60605;53.716;19.940;2024-02-23T19:39:37;355.80;;;140.20;;
57899;SDS011;60605;53.716;19.940;2024-02-23T19:44:40;239.40;;;92.80;;
57899;SDS011;60605;53.716;19.940;2024-02-23T19:49:45;254.00;;;94.60;;
57899;SDS011;60605;53.716;19.940;2024-02-23T19:54:47;173.30;;;68.70;;
57899;SDS011;60605;53.716;19.940;2024-02-23T19:59:50;156.30;;;66.10;;
57899;SDS011;60605;53.716;19.940;2024-02-23T20:04:53;135.50;;;60.00;;
57899;SDS011;60605;53.716;19.940;2024-02-23T20:09:57;124.70;;;52.70;;
57899;SDS011;60605;53.716;19.940;2024-02-23T20:15:04;175.60;;;77.10;;
57899;SDS011;60605;53.716;19.940;2024-02-23T20:20:07;160.30;;;70.10;;
57899;SDS011;60605;53.716;19.940;2024-02-23T20:25:11;166.60;;;72.60;;
57899;SDS011;60605;53.716;19.940;2024-02-23T20:30:14;117.30;;;49.10;;
57899;SDS011;60605;53.716;19.940;2024-02-23T20:35:17;86.50;;;33.40;;
57899;SDS011;60605;53.716;19.940;2024-02-23T20:40:20;120.60;;;44.00;;
57899;SDS011;60605;53.716;19.940;2024-02-23T20:45:22;113.50;;;38.60;;
57899;SDS011;60605;53.716;19.940;2024-02-23T20:50:25;146.10;;;49.70;;
57899;SDS011;60605;53.716;19.940;2024-02-23T20:55:28;149.00;;;50.40;;
57899;SDS011;60605;53.716;19.940;2024-02-23T21:00:31;82.30;;;35.10;;
57899;SDS011;60605;53.716;19.940;2024-02-23T21:05:33;126.30;;;48.90;;
57899;SDS011;60605;53.716;19.940;2024-02-23T21:10:39;121.00;;;43.50;;
57899;SDS011;60605;53.716;19.940;2024-02-23T21:15:43;130.50;;;48.50;;
57899;SDS011;60605;53.716;19.940;2024-02-23T21:20:46;75.70;;;30.80;;
57899;SDS011;60605;53.716;19.940;2024-02-23T21:25:54;63.70;;;29.30;;
57899;SDS011;60605;53.716;19.940;2024-02-23T21:30:56;61.40;;;30.70;;
57899;SDS011;60605;53.716;19.940;2024-02-23T21:36:06;52.00;;;27.40;;
57899;SDS011;60605;53.716;19.940;2024-02-23T21:41:09;67.60;;;29.80;;
57899;SDS011;60605;53.716;19.940;2024-02-23T21:46:12;52.10;;;28.50;;
57899;SDS011;60605;53.716;19.940;2024-02-23T21:51:14;48.40;;;25.40;;
57899;SDS011;60605;53.716;19.940;2024-02-23T21:56:18;65.60;;;31.00;;
57899;SDS011;60605;53.716;19.940;2024-02-23T22:01:20;63.50;;;30.70;;
57899;SDS011;60605;53.716;19.940;2024-02-23T22:06:24;56.60;;;26.90;;
57899;SDS011;60605;53.716;19.940;2024-02-23T22:11:27;55.00;;;24.80;;
57899;SDS011;60605;53.716;19.940;2024-02-23T22:16:29;47.40;;;22.80;;
57899;SDS011;60605;53.716;19.940;2024-02-23T22:21:31;31.30;;;16.80;;
57899;SDS011;60605;53.716;19.940;2024-02-23T22:26:33;42.90;;;20.20;;
57899;SDS011;60605;53.716;19.940;2024-02-23T22:31:43;61.30;;;28.30;;
57899;SDS011;60605;53.716;19.940;2024-02-23T22:36:48;40.10;;;20.00;;
57899;SDS011;60605;53.716;19.940;2024-02-23T22:41:51;56.60;;;26.70;;
57899;SDS011;60605;53.716;19.940;2024-02-23T22:46:53;46.70;;;25.80;;
57899;SDS011;60605;53.716;19.940;2024-02-23T22:51:57;55.10;;;30.70;;
57899;SDS011;60605;53.716;19.940;2024-02-23T22:56:59;72.30;;;35.20;;
57899;SDS011;60605;53.716;19.940;2024-02-23T23:02:02;61.10;;;29.60;;
57899;SDS011;60605;53.716;19.940;2024-02-23T23:07:04;77.80;;;38.00;;
57899;SDS011;60605;53.716;19.940;2024-02-23T23:12:07;79.60;;;41.20;;
57899;SDS011;60605;53.716;19.940;2024-02-23T23:17:09;104.40;;;45.30;;
57899;SDS011;60605;53.716;19.940;2024-02-23T23:22:11;92.70;;;41.30;;
57899;SDS011;60605;53.716;19.940;2024-02-23T23:27:13;82.70;;;35.70;;
57899;SDS011;60605;53.716;19.940;2024-02-23T23:32:15;69.60;;;36.20;;
57899;SDS011;60605;53.716;19.940;2024-02-23T23:37:18;52.20;;;28.80;;
57899;SDS011;60605;53.716;19.940;2024-02-23T23:42:20;46.00;;;24.30;;
57899;SDS011;60605;53.716;19.940;2024-02-23T23:47:22;28.20;;;17.20;;
57899;SDS011;60605;53.716;19.940;2024-02-23T23:52:25;36.70;;;21.60;;
57899;SDS011;60605;53.716;19.940;2024-02-23T23:57:29;46.80;;;26.50;;
